Time;durP1;ratioP1;P1;durP2;ratioP2;P2;SDS_P1;SDS_P2;PMS_P1;PMS_P2;Temp;Humidity;BMP_temperature;BMP_pressure;BME280_temperature;BME280_humidity;BME280_pressure;Samples;Min_cycle;Max_cycle;Signal;HPM_P1;HPM_P2
2024/03/23 00:00:34;;;;;;;3.30;2.43;;;8.80;1.00;;;;;;5054642;28;20447;-68
2024/03/23 00:03:01;;;;;;;4.50;2.90;;;8.90;1.00;;;;;;5019721;28;20429;-68
2024/03/23 00:05:27;;;;;;;4.77;3.30;;;8.90;1.00;;;;;;5054403;28;20788;-68
2024/03/23 00:07:54;;;;;;;6.13;3.03;;;9.00;1.00;;;;;;5036400;28;20440;-68
2024/03/23 00:10:22;;;;;;;8.53;3.20;;;9.10;1.00;;;;;;5054132;28;20440;-68
2024/03/23 00:12:48;;;;;;;5.73;3.63;;;9.10;1.00;;;;;;5054273;28;20424;-68
2024/03/23 00:15:15;;;;;;;5.00;3.30;;;9.10;1.00;;;;;;5054157;28;20424;-68
2024/03/23 00:17:41;;;;;;;3.50;2.53;;;9.10;1.00;;;;;;5053898;28;20783;-69
2024/03/23 00:20:08;;;;;;;4.80;2.83;;;9.10;1.00;;;;;;5054169;28;20428;-69
2024/03/23 00:22:35;;;;;;;6.00;2.83;;;9.10;1.00;;;;;;5054249;28;20412;-67
2024/03/23 00:25:01;;;;;;;4.20;2.83;;;9.00;1.00;;;;;;5036147;28;20790;-68
2024/03/23 00:27:28;;;;;;;5.17;2.50;;;9.00;1.00;;;;;;5053951;28;20451;-69
2024/03/23 00:29:55;;;;;;;4.30;3.33;;;9.00;1.00;;;;;;5053843;28;20432;-69
2024/03/23 00:32:21;;;;;;;3.80;2.83;;;9.00;1.00;;;;;;5053964;28;20789;-68
2024/03/23 00:34:48;;;;;;;4.00;2.93;;;9.00;1.00;;;;;;5054398;28;20417;-68
2024/03/23 00:37:14;;;;;;;4.10;3.37;;;9.10;1.00;;;;;;5053951;28;20424;-68
2024/03/23 00:39:41;;;;;;;5.33;3.10;;;9.10;1.00;;;;;;5053554;28;20448;-68
2024/03/23 00:42:07;;;;;;;4.47;3.03;;;9.20;1.00;;;;;;5053807;28;20435;-69
2024/03/23 00:44:34;;;;;;;3.90;2.40;;;9.30;1.00;;;;;;5053495;28;20423;-69
2024/03/23 00:47:00;;;;;;;2.60;1.83;;;9.30;1.00;;;;;;5053647;28;20819;-69
2024/03/23 00:49:27;;;;;;;3.90;2.40;;;9.40;1.00;;;;;;5018773;28;20456;-69
2024/03/23 00:51:53;;;;;;;3.03;1.97;;;9.40;1.00;;;;;;5053515;28;20470;-68
2024/03/23 00:54:18;;;;;;;6.00;2.90;;;9.50;1.00;;;;;;5053482;28;20417;-69
2024/03/23 00:56:44;;;;;;;7.33;2.97;;;9.50;1.00;;;;;;5053059;28;20405;-69
2024/03/23 00:59:09;;;;;;;4.90;2.40;;;9.60;1.00;;;;;;5052851;28;20228;-69
2024/03/23 01:01:35;;;;;;;6.10;2.73;;;9.50;1.00;;;;;;5053270;28;20239;-68
2024/03/23 01:04:00;;;;;;;5.30;2.53;;;9.60;1.00;;;;;;5053208;28;20653;-69
2024/03/23 01:06:26;;;;;;;4.57;3.10;;;9.60;1.00;;;;;;5053259;28;20206;-69
2024/03/23 01:08:52;;;;;;;5.03;3.20;;;9.60;1.00;;;;;;5034865;28;20181;-69
2024/03/23 01:11:17;;;;;;;3.90;2.60;;;9.60;1.00;;;;;;5054294;28;20209;-70
2024/03/23 01:13:43;;;;;;;5.43;2.40;;;9.60;1.00;;;;;;5054337;28;20748;-69
2024/03/23 01:16:08;;;;;;;3.63;2.93;;;9.60;1.00;;;;;;5052877;28;20204;-68
2024/03/23 01:18:34;;;;;;;3.93;2.30;;;9.60;1.00;;;;;;5052606;28;20177;-69
2024/03/23 01:20:59;;;;;;;4.07;2.43;;;9.60;1.00;;;;;;5053181;28;20205;-69
2024/03/23 01:23:25;;;;;;;4.77;2.90;;;9.60;1.00;;;;;;5035001;28;20189;-69
2024/03/23 01:25:54;;;;;;;3.40;2.33;;;9.70;1.00;;;;;;5053072;28;20669;-69
2024/03/23 01:28:20;;;;;;;4.00;1.90;;;9.70;1.00;;;;;;5052855;28;20201;-68
2024/03/23 01:30:46;;;;;;;10.60;2.60;;;9.70;1.00;;;;;;5052591;28;20950;-69
2024/03/23 01:33:12;;;;;;;3.17;2.30;;;9.80;1.00;;;;;;5052765;28;20421;-68
2024/03/23 01:35:38;;;;;;;2.97;2.30;;;9.80;1.00;;;;;;5052764;28;20405;-68
2024/03/23 01:38:04;;;;;;;3.50;1.77;;;10.00;1.00;;;;;;5052802;28;20178;-68
2024/03/23 01:40:32;;;;;;;4.93;3.00;;;10.00;1.00;;;;;;5052457;28;20213;-68
2024/03/23 01:43:01;;;;;;;3.83;2.43;;;10.10;1.00;;;;;;5052455;28;20194;-69
2024/03/23 01:45:30;;;;;;;2.70;1.83;;;10.20;1.00;;;;;;5052546;28;20456;-69
2024/03/23 01:47:55;;;;;;;3.90;2.67;;;10.30;1.00;;;;;;5052254;28;20437;-69
2024/03/23 01:50:21;;;;;;;4.67;2.20;;;10.30;1.00;;;;;;5052481;28;20461;-69
2024/03/23 01:52:48;;;;;;;4.17;2.20;;;10.30;1.00;;;;;;5052363;28;20244;-70
2024/03/23 01:55:13;;;;;;;4.13;2.10;;;10.30;1.00;;;;;;5052258;28;20224;-69
2024/03/23 01:57:39;;;;;;;4.23;2.20;;;10.40;1.00;;;;;;5052121;28;20424;-69
2024/03/23 02:00:06;;;;;;;4.53;2.50;;;10.50;1.00;;;;;;5052374;28;20202;-69
2024/03/23 02:02:31;;;;;;;3.13;2.20;;;10.60;1.00;;;;;;5052366;28;20175;-69
2024/03/23 02:04:57;;;;;;;5.50;2.67;;;10.60;1.00;;;;;;5052027;28;20474;-70
2024/03/23 02:07:23;;;;;;;3.30;1.83;;;10.60;1.00;;;;;;5052164;28;20576;-69
2024/03/23 02:09:49;;;;;;;3.33;1.90;;;10.60;1.00;;;;;;5034498;28;20198;-69
2024/03/23 02:12:15;;;;;;;3.83;2.43;;;10.70;1.00;;;;;;5051661;28;20979;-69
2024/03/23 02:14:41;;;;;;;2.53;1.80;;;10.70;1.00;;;;;;5052111;28;20409;-68
2024/03/23 02:17:06;;;;;;;3.37;2.10;;;10.80;1.00;;;;;;5052069;28;20181;-68
2024/03/23 02:19:32;;;;;;;3.40;2.50;;;10.80;1.00;;;;;;5051988;28;20669;-68
2024/03/23 02:21:57;;;;;;;2.50;1.80;;;10.80;1.00;;;;;;5051979;28;20264;-68
2024/03/23 02:24:23;;;;;;;5.47;2.90;;;10.90;1.00;;;;;;5051974;28;20189;-67
2024/03/23 02:26:48;;;;;;;2.93;1.53;;;11.00;1.00;;;;;;5051664;28;20645;-68
2024/03/23 02:29:14;;;;;;;4.27;2.20;;;11.10;1.00;;;;;;5052042;28;20610;-71
2024/03/23 02:31:40;;;;;;;4.83;2.30;;;11.20;1.00;;;;;;5034077;28;20239;-68
2024/03/23 02:34:06;;;;;;;3.87;2.20;;;11.30;1.00;;;;;;5052111;28;20467;-68
2024/03/23 02:36:31;;;;;;;3.23;2.53;;;11.20;1.00;;;;;;5051617;28;20417;-66
2024/03/23 02:38:56;;;;;;;3.07;2.20;;;11.30;1.00;;;;;;5033765;28;20595;-67
2024/03/23 02:41:23;;;;;;;3.30;3.00;;;11.20;1.00;;;;;;5051928;28;20222;-69
2024/03/23 02:43:52;;;;;;;2.03;1.63;;;11.30;1.00;;;;;;5051867;28;20182;-69
2024/03/23 02:46:17;;;;;;;3.70;2.53;;;11.40;1.00;;;;;;5051729;28;20467;-70
2024/03/23 02:48:43;;;;;;;3.60;1.63;;;11.60;1.00;;;;;;5051750;28;20417;-70
2024/03/23 02:51:09;;;;;;;2.90;2.20;;;11.60;1.00;;;;;;5051661;28;20235;-70
2024/03/23 02:53:34;;;;;;;2.83;1.73;;;11.70;1.00;;;;;;5051854;28;20171;-69
2024/03/23 02:56:00;;;;;;;2.93;1.80;;;11.80;1.00;;;;;;5051664;28;20184;-70
2024/03/23 02:58:26;;;;;;;4.10;2.37;;;11.90;1.00;;;;;;5052303;28;20645;-69
2024/03/23 03:00:51;;;;;;;6.13;2.20;;;12.00;1.00;;;;;;5052938;28;20191;-70
2024/03/23 03:03:17;;;;;;;3.57;1.67;;;11.90;1.00;;;;;;5052490;28;20171;-70
2024/03/23 03:05:42;;;;;;;4.53;2.60;;;11.90;1.00;;;;;;5052599;28;20174;-69
2024/03/23 03:08:08;;;;;;;3.70;2.33;;;11.80;1.00;;;;;;5051106;28;20190;-71
2024/03/23 03:10:36;;;;;;;3.27;2.00;;;11.70;1.00;;;;;;5051827;28;20198;-70
2024/03/23 03:13:02;;;;;;;3.50;2.17;;;;;;;;;;5078071;28;20207;-70
2024/03/23 03:15:27;;;;;;;5.70;1.83;;;11.90;1.00;;;;;;5091505;28;20813;-70
2024/03/23 03:17:53;;;;;;;4.10;1.80;;;12.10;1.00;;;;;;5091062;28;20483;-71
2024/03/23 03:20:19;;;;;;;2.87;2.00;;;12.20;1.00;;;;;;5091507;28;20197;-69
2024/03/23 03:22:44;;;;;;;2.50;1.60;;;12.10;1.00;;;;;;5093408;28;20182;-71
2024/03/23 03:25:10;;;;;;;4.90;3.23;;;12.10;1.00;;;;;;5095231;28;20254;-73
2024/03/23 03:27:35;;;;;;;3.97;3.20;;;12.20;1.00;;;;;;5095121;28;20543;-70
2024/03/23 03:30:02;;;;;;;4.07;2.40;;;12.30;1.00;;;;;;5095455;28;20189;-69
2024/03/23 03:32:29;;;;;;;4.03;2.10;;;12.30;1.00;;;;;;5077089;28;20206;-70
2024/03/23 03:34:54;;;;;;;3.40;2.13;;;12.30;1.00;;;;;;5095414;28;20776;-71
2024/03/23 03:37:20;;;;;;;2.90;2.17;;;12.30;1.00;;;;;;5095060;28;20410;-70
2024/03/23 03:39:45;;;;;;;3.33;2.10;;;12.30;1.00;;;;;;5094829;28;20201;-70
2024/03/23 03:42:11;;;;;;;3.30;2.30;;;12.20;1.00;;;;;;5095002;28;20176;-70
2024/03/23 03:44:36;;;;;;;3.30;2.07;;;12.20;1.00;;;;;;5094938;28;20181;-70
2024/03/23 03:47:02;;;;;;;3.27;2.37;;;12.10;1.00;;;;;;5094653;28;20567;-71
2024/03/23 03:49:28;;;;;;;2.47;1.53;;;12.10;1.00;;;;;;5094905;28;20731;-71
2024/03/23 03:51:53;;;;;;;6.07;2.03;;;12.00;1.00;;;;;;5076701;28;20207;-69
2024/03/23 03:54:19;;;;;;;2.80;2.40;;;11.90;1.00;;;;;;5095010;28;20265;-70
2024/03/23 03:56:44;;;;;;;4.83;2.20;;;11.80;1.00;;;;;;5094694;28;20256;-70
2024/03/23 03:59:10;;;;;;;4.37;2.50;;;11.70;1.00;;;;;;5095280;28;20541;-70
2024/03/23 04:01:35;;;;;;;3.80;2.50;;;11.80;1.00;;;;;;5095389;28;20174;-70
2024/03/23 04:04:01;;;;;;;2.50;2.10;;;11.90;1.00;;;;;;5095471;28;20596;-70
2024/03/23 04:06:27;;;;;;;3.40;2.90;;;11.80;1.00;;;;;;5094812;28;20690;-70
2024/03/23 04:08:52;;;;;;;3.07;2.60;;;11.80;1.00;;;;;;5094241;28;20420;-71
2024/03/23 04:11:18;;;;;;;3.30;1.93;;;11.80;1.00;;;;;;5094663;28;20242;-71
2024/03/23 04:13:43;;;;;;;3.60;2.27;;;11.80;1.00;;;;;;5094471;28;20249;-71
2024/03/23 04:16:09;;;;;;;2.70;1.63;;;11.80;1.00;;;;;;5094589;28;20173;-71
2024/03/23 04:18:35;;;;;;;3.70;2.20;;;11.80;1.00;;;;;;5094104;28;20178;-70
2024/03/23 04:21:00;;;;;;;10.83;3.10;;;11.80;1.00;;;;;;5094563;28;20208;-70
2024/03/23 04:23:26;;;;;;;5.53;2.80;;;11.80;1.00;;;;;;5094420;28;20497;-70
2024/03/23 04:25:53;;;;;;;5.23;2.67;;;12.00;1.00;;;;;;5094575;28;20170;-70
2024/03/23 04:28:19;;;;;;;3.77;1.53;;;12.10;1.00;;;;;;5094316;28;20181;-70
2024/03/23 04:30:44;;;;;;;3.20;2.13;;;12.00;1.00;;;;;;5076229;28;20789;-70
2024/03/23 04:33:10;;;;;;;3.57;2.20;;;12.10;1.00;;;;;;5094277;28;20408;-70
2024/03/23 04:35:36;;;;;;;4.93;2.70;;;12.20;1.00;;;;;;5094707;28;20170;-70
2024/03/23 04:38:02;;;;;;;2.87;2.10;;;12.40;1.00;;;;;;5108907;28;20258;-70
2024/03/23 04:40:27;;;;;;;3.40;2.43;;;12.30;1.00;;;;;;5094490;28;20880;-70
2024/03/23 04:42:53;;;;;;;3.23;2.20;;;12.20;1.00;;;;;;5094388;28;20173;-70
2024/03/23 04:45:18;;;;;;;3.70;1.80;;;12.20;1.00;;;;;;5094085;28;20174;-70
2024/03/23 04:47:44;;;;;;;4.67;1.93;;;12.20;1.00;;;;;;5093747;28;20174;-71
2024/03/23 04:50:12;;;;;;;2.73;1.97;;;12.20;1.00;;;;;;5094394;28;20623;-70
2024/03/23 04:52:38;;;;;;;3.97;2.57;;;12.10;1.00;;;;;;5093897;28;20205;-71
2024/03/23 04:55:04;;;;;;;4.30;2.53;;;12.30;1.00;;;;;;5094045;28;20422;-70
2024/03/23 04:57:30;;;;;;;4.63;1.90;;;12.40;1.00;;;;;;5093664;28;20170;-70
2024/03/23 04:59:55;;;;;;;3.53;2.30;;;12.50;1.00;;;;;;5094296;28;20911;-70
2024/03/23 05:02:21;;;;;;;3.37;1.77;;;12.70;1.00;;;;;;5094309;28;20544;-70
2024/03/23 05:04:46;;;;;;;5.03;2.60;;;12.70;1.00;;;;;;5093968;28;20177;-69
2024/03/23 05:07:12;;;;;;;5.13;2.10;;;12.80;1.00;;;;;;5093705;28;20189;-71
2024/03/23 05:09:37;;;;;;;3.90;2.37;;;12.90;1.00;;;;;;5093380;28;20207;-71
2024/03/23 05:12:03;;;;;;;3.07;2.60;;;13.00;1.00;;;;;;5093407;28;20680;-71
2024/03/23 05:14:29;;;;;;;2.50;1.97;;;13.10;1.00;;;;;;5094080;28;20174;-71
2024/03/23 05:16:55;;;;;;;4.00;2.60;;;13.30;1.00;;;;;;5093016;28;20464;-70
2024/03/23 05:19:21;;;;;;;5.10;2.37;;;13.30;1.00;;;;;;5093122;28;20162;-70
2024/03/23 05:21:46;;;;;;;2.90;2.20;;;13.40;1.00;;;;;;5093196;28;20451;-70
2024/03/23 05:24:12;;;;;;;3.60;2.50;;;13.40;1.00;;;;;;5093302;28;20176;-70
2024/03/23 05:26:38;;;;;;;4.73;2.20;;;13.40;1.00;;;;;;5092996;28;20177;-70
2024/03/23 05:29:03;;;;;;;9.30;2.80;;;13.40;1.00;;;;;;5092967;28;20180;-70
2024/03/23 05:31:30;;;;;;;4.40;2.70;;;13.40;1.00;;;;;;5092825;28;20249;-69
2024/03/23 05:33:56;;;;;;;7.10;2.63;;;13.20;1.00;;;;;;5092710;28;20166;-71
2024/03/23 05:36:23;;;;;;;4.93;2.50;;;13.00;1.00;;;;;;5092574;28;20548;-70
2024/03/23 05:38:49;;;;;;;3.50;2.40;;;12.70;1.00;;;;;;5092455;28;20413;-68
2024/03/23 05:41:14;;;;;;;6.90;3.00;;;12.50;1.00;;;;;;5092785;28;20455;-70
2024/03/23 05:43:40;;;;;;;3.63;2.53;;;12.00;2.10;;;;;;5092841;28;20267;-71
2024/03/23 05:46:06;;;;;;;5.10;3.30;;;11.40;9.80;;;;;;5091834;28;20618;-71
2024/03/23 05:48:31;;;;;;;5.20;3.60;;;10.80;17.40;;;;;;5092526;28;20175;-69
2024/03/23 05:50:57;;;;;;;9.73;5.03;;;10.40;22.90;;;;;;5092472;28;20207;-68
2024/03/23 05:53:24;;;;;;;6.63;4.33;;;10.20;26.50;;;;;;5092609;28;20264;-69
2024/03/23 05:55:50;;;;;;;5.93;5.33;;;10.00;29.50;;;;;;5092446;28;20442;-69
2024/03/23 05:58:18;;;;;;;5.40;4.23;;;9.90;31.80;;;;;;5092322;28;20447;-69
2024/03/23 06:00:44;;;;;;;6.30;4.80;;;9.70;32.80;;;;;;5092646;28;20426;-69
2024/03/23 06:03:10;;;;;;;6.43;4.47;;;9.60;33.30;;;;;;5092491;28;20928;-69
2024/03/23 06:05:39;;;;;;;10.17;6.30;;;9.50;35.90;;;;;;5092097;28;20504;-69
2024/03/23 06:08:05;;;;;;;5.90;4.10;;;9.50;34.50;;;;;;5092701;28;20403;-69
2024/03/23 06:10:31;;;;;;;4.77;4.20;;;9.50;35.60;;;;;;5092401;28;20426;-71
2024/03/23 06:12:58;;;;;;;3.97;3.10;;;9.50;34.90;;;;;;5092205;28;20446;-71
2024/03/23 06:15:24;;;;;;;4.30;3.40;;;9.40;33.50;;;;;;5092416;28;20484;-69
2024/03/23 06:17:49;;;;;;;8.60;3.70;;;9.40;33.80;;;;;;5092052;28;20469;-72
2024/03/23 06:20:15;;;;;;;5.70;4.23;;;9.30;34.50;;;;;;5092161;28;20530;-71
2024/03/23 06:22:40;;;;;;;5.97;3.37;;;9.30;35.20;;;;;;5080612;28;20200;-71
2024/03/23 06:25:07;;;;;;;7.37;4.20;;;9.30;34.20;;;;;;5072831;28;20183;-71
2024/03/23 06:27:33;;;;;;;7.90;4.87;;;9.30;34.20;;;;;;5074381;28;20260;-73
2024/03/23 06:29:59;;;;;;;4.73;4.07;;;9.30;34.50;;;;;;5074027;28;20475;-73
2024/03/23 06:32:25;;;;;;;6.10;3.90;;;9.30;33.50;;;;;;5073560;28;20455;-73
2024/03/23 06:34:50;;;;;;;5.27;3.20;;;9.30;31.30;;;;;;5071897;28;20419;-72
2024/03/23 06:37:16;;;;;;;3.90;3.10;;;9.20;26.90;;;;;;5071692;28;20178;-73
2024/03/23 06:39:42;;;;;;;3.47;2.37;;;9.10;24.70;;;;;;5071973;28;20731;-73
2024/03/23 06:42:08;;;;;;;5.47;2.47;;;9.10;21.50;;;;;;5071805;28;20213;-73
2024/03/23 06:44:33;;;;;;;3.37;2.30;;;9.00;21.70;;;;;;5065907;28;20189;-73
2024/03/23 06:46:59;;;;;;;2.77;1.40;;;9.00;22.70;;;;;;5070632;28;20435;-73
2024/03/23 06:49:25;;;;;;;2.83;1.50;;;8.90;19.20;;;;;;5071775;28;20825;-72
2024/03/23 06:51:50;;;;;;;2.77;1.20;;;8.80;17.40;;;;;;5071779;28;20211;-72
2024/03/23 06:54:20;;;;;;;2.03;1.10;;;8.80;20.10;;;;;;5071978;28;20183;-71
2024/03/23 06:56:46;;;;;;;2.30;1.20;;;8.70;18.90;;;;;;5072166;28;20256;-72
2024/03/23 06:59:11;;;;;;;3.33;1.47;;;8.60;19.30;;;;;;5075555;28;20873;-72
2024/03/23 07:01:37;;;;;;;3.43;1.70;;;8.60;18.60;;;;;;5076136;28;20418;-72
2024/03/23 07:04:03;;;;;;;2.33;1.33;;;8.60;20.30;;;;;;5075737;28;20185;-71
2024/03/23 07:06:29;;;;;;;2.20;1.00;;;8.60;21.70;;;;;;5075534;28;20176;-72
2024/03/23 07:08:55;;;;;;;2.10;1.00;;;8.70;21.20;;;;;;5075479;28;20438;-72
2024/03/23 07:11:21;;;;;;;2.40;1.10;;;8.80;20.90;;;;;;5075569;28;20496;-71
2024/03/23 07:13:49;;;;;;;1.73;0.80;;;8.80;20.20;;;;;;5076462;28;20182;-71
2024/03/23 07:16:16;;;;;;;1.90;1.00;;;8.70;15.10;;;;;;5075860;28;20505;-71
2024/03/23 07:18:41;;;;;;;2.43;0.93;;;8.70;17.70;;;;;;5057554;28;20435;-69
2024/03/23 07:21:07;;;;;;;1.77;0.80;;;8.80;18.10;;;;;;5075524;28;21003;-69
2024/03/23 07:23:33;;;;;;;1.80;0.77;;;8.90;16.20;;;;;;5074932;28;20233;-71
2024/03/23 07:26:05;;;;;;;1.80;0.70;;;8.90;16.30;;;;;;5074744;28;20561;-71
2024/03/23 07:28:35;;;;;;;1.97;0.67;;;9.10;15.80;;;;;;5074721;28;20856;-71
2024/03/23 07:31:02;;;;;;;2.00;0.70;;;9.40;12.10;;;;;;5075059;28;20929;-71
2024/03/23 07:33:28;;;;;;;2.07;0.90;;;9.40;10.10;;;;;;5075053;28;20827;-73
2024/03/23 07:35:53;;;;;;;1.90;0.70;;;9.50;11.20;;;;;;5074761;28;20410;-71
2024/03/23 07:38:19;;;;;;;1.67;0.73;;;9.60;10.80;;;;;;5074665;28;20434;-70
2024/03/23 07:40:44;;;;;;;5.00;1.20;;;9.60;10.00;;;;;;5074553;28;20692;-69
2024/03/23 07:43:10;;;;;;;1.80;0.80;;;9.60;10.50;;;;;;5074766;28;20642;-68
2024/03/23 07:45:37;;;;;;;1.93;0.73;;;9.60;10.10;;;;;;5068351;28;20181;-69
2024/03/23 07:48:03;;;;;;;1.73;0.70;;;9.50;8.20;;;;;;5063104;28;20175;-69
2024/03/23 07:50:29;;;;;;;2.80;1.03;;;9.50;9.00;;;;;;5064630;28;20449;-69
2024/03/23 07:52:54;;;;;;;1.90;0.80;;;9.60;8.50;;;;;;5062953;28;20459;-69
2024/03/23 07:55:21;;;;;;;1.80;0.70;;;9.60;10.00;;;;;;5063641;28;20534;-69
2024/03/23 07:57:46;;;;;;;2.00;1.13;;;9.60;9.10;;;;;;5064392;28;20173;-70
2024/03/23 08:00:13;;;;;;;2.83;0.63;;;9.60;8.80;;;;;;5044410;28;20471;-69
2024/03/23 08:02:38;;;;;;;1.80;0.77;;;9.50;7.10;;;;;;5063581;28;20173;-69
2024/03/23 08:05:04;;;;;;;1.70;0.63;;;9.60;7.20;;;;;;5064307;28;20478;-69
2024/03/23 08:07:30;;;;;;;1.80;0.70;;;9.90;9.50;;;;;;5062144;28;20665;-68
2024/03/23 08:09:55;;;;;;;3.60;0.83;;;10.40;7.20;;;;;;5063111;28;20194;-69
2024/03/23 08:12:21;;;;;;;1.60;0.57;;;10.60;3.50;;;;;;5062347;28;20197;-69
2024/03/23 08:14:46;;;;;;;1.93;0.90;;;10.50;2.30;;;;;;5067099;28;20175;-69
2024/03/23 08:17:12;;;;;;;1.80;0.70;;;10.50;1.00;;;;;;5064525;28;20536;-69
2024/03/23 08:19:37;;;;;;;1.70;0.60;;;10.20;1.00;;;;;;5063138;28;20202;-69
2024/03/23 08:22:03;;;;;;;1.90;0.60;;;9.90;1.00;;;;;;5063264;28;20184;-69
2024/03/23 08:24:30;;;;;;;1.50;0.50;;;9.40;1.00;;;;;;5064034;28;20181;-69
2024/03/23 08:26:55;;;;;;;1.60;0.50;;;9.20;1.30;;;;;;5062709;28;20181;-70
2024/03/23 08:29:21;;;;;;;2.70;0.70;;;9.20;1.00;;;;;;5064831;28;20445;-69
2024/03/23 08:31:46;;;;;;;1.70;0.70;;;9.30;1.00;;;;;;5073113;28;20205;-73
2024/03/23 08:34:12;;;;;;;1.67;0.83;;;9.70;1.30;;;;;;5074097;28;20184;-70
2024/03/23 08:36:38;;;;;;;2.00;0.97;;;10.60;1.00;;;;;;5073286;28;20526;-69
2024/03/23 08:39:03;;;;;;;2.03;0.90;;;11.30;1.00;;;;;;5073058;28;20181;-70
2024/03/23 08:41:29;;;;;;;2.30;1.10;;;11.10;1.00;;;;;;5072441;28;20217;-68
2024/03/23 08:43:54;;;;;;;1.63;0.70;;;10.90;1.00;;;;;;5072216;28;20189;-69
2024/03/23 08:46:20;;;;;;;2.23;0.90;;;10.80;1.00;;;;;;5078584;28;20213;-68
2024/03/23 08:48:48;;;;;;;3.13;1.23;;;10.80;1.00;;;;;;5089704;28;20183;-67
2024/03/23 08:51:15;;;;;;;4.37;1.50;;;10.70;1.00;;;;;;5090082;28;20197;-67
2024/03/23 08:53:42;;;;;;;2.27;1.03;;;10.50;1.00;;;;;;5088861;28;20497;-68
2024/03/23 08:56:09;;;;;;;7.33;2.00;;;10.10;1.00;;;;;;5089620;28;20460;-69
2024/03/23 08:58:36;;;;;;;3.60;1.60;;;10.00;1.00;;;;;;5091116;28;20479;-68
2024/03/23 09:01:07;;;;;;;2.90;1.93;;;9.80;1.00;;;;;;5089844;28;20982;-68
2024/03/23 09:03:34;;;;;;;4.00;1.30;;;9.80;1.00;;;;;;5090160;28;20782;-68
2024/03/23 09:06:00;;;;;;;3.60;1.80;;;9.70;1.00;;;;;;5090733;28;20413;-68
2024/03/23 09:08:26;;;;;;;5.67;1.87;;;9.70;1.00;;;;;;5093054;28;20551;-68
2024/03/23 09:10:52;;;;;;;2.87;1.63;;;9.60;1.00;;;;;;5092924;28;20964;-69
2024/03/23 09:13:18;;;;;;;3.60;1.73;;;9.70;1.00;;;;;;5093545;28;20184;-68
2024/03/23 09:15:49;;;;;;;4.70;2.77;;;10.00;1.00;;;;;;5093180;28;20403;-68
2024/03/23 09:18:15;;;;;;;3.00;1.63;;;10.10;1.00;;;;;;5093051;28;20176;-68
2024/03/23 09:20:40;;;;;;;9.67;2.50;;;10.30;1.00;;;;;;5092553;28;20766;-68
2024/03/23 09:23:06;;;;;;;7.40;2.20;;;10.00;1.00;;;;;;5093049;28;20222;-68
2024/03/23 09:25:31;;;;;;;8.50;2.43;;;9.90;1.00;;;;;;5092741;28;20321;-68
2024/03/23 09:27:57;;;;;;;4.27;3.00;;;9.80;1.00;;;;;;5092574;28;20589;-70
2024/03/23 09:30:23;;;;;;;5.53;3.57;;;9.70;1.00;;;;;;5092906;28;20646;-69
2024/03/23 09:32:48;;;;;;;3.77;2.70;;;9.70;1.00;;;;;;5092938;28;20464;-67
2024/03/23 09:35:14;;;;;;;5.20;2.60;;;9.50;1.00;;;;;;5092867;28;20175;-69
2024/03/23 09:37:40;;;;;;;8.63;3.27;;;9.40;1.00;;;;;;5092676;28;20180;-70
2024/03/23 09:40:09;;;;;;;3.97;2.50;;;9.60;1.00;;;;;;5092721;28;20215;-69
2024/03/23 09:42:35;;;;;;;4.10;2.80;;;9.70;1.00;;;;;;5092240;28;20181;-69
2024/03/23 09:45:01;;;;;;;4.83;2.90;;;9.70;1.00;;;;;;5092389;28;20424;-70
2024/03/23 09:47:27;;;;;;;3.90;2.37;;;9.50;1.00;;;;;;5091940;28;20216;-69
2024/03/23 09:49:53;;;;;;;4.00;2.10;;;9.50;1.00;;;;;;5091909;28;20435;-69
2024/03/23 09:52:19;;;;;;;6.00;3.07;;;9.30;1.00;;;;;;5091796;28;20470;-68
2024/03/23 09:54:44;;;;;;;4.83;2.60;;;9.40;1.00;;;;;;5092104;28;20541;-69
2024/03/23 09:57:10;;;;;;;5.83;2.27;;;9.30;1.00;;;;;;5092294;28;20465;-69
2024/03/23 09:59:36;;;;;;;4.30;2.80;;;9.50;1.00;;;;;;5092334;28;20829;-69
2024/03/23 10:02:01;;;;;;;4.87;2.80;;;9.50;1.00;;;;;;5092219;28;20260;-68
2024/03/23 10:04:41;;;;;;;6.20;3.03;;;9.80;1.00;;;;;;5075236;28;20189;-69
2024/03/23 10:07:14;;;;;;;7.17;3.63;;;10.00;1.00;;;;;;5081013;28;20504;-68
2024/03/23 10:09:40;;;;;;;13.67;3.83;;;10.20;1.00;;;;;;5071448;28;20444;-70
2024/03/23 10:12:17;;;;;;;5.97;2.60;;;10.30;1.00;;;;;;5071371;28;20807;-68
2024/03/23 10:14:43;;;;;;;8.40;4.07;;;10.50;1.00;;;;;;5071560;28;20412;-69
2024/03/23 10:17:19;;;;;;;6.83;3.50;;;10.70;1.00;;;;;;5070908;28;20427;-68
2024/03/23 10:19:49;;;;;;;4.30;3.00;;;11.00;1.00;;;;;;5053310;28;20435;-68
2024/03/23 10:22:18;;;;;;;4.67;3.10;;;11.20;1.00;;;;;;5071986;28;20814;-69
2024/03/23 10:24:43;;;;;;;6.10;4.03;;;11.60;1.00;;;;;;5071925;28;20442;-68
2024/03/23 10:27:09;;;;;;;4.60;3.20;;;11.80;1.00;;;;;;5053004;28;20445;-69
2024/03/23 10:29:35;;;;;;;5.77;3.17;;;11.70;1.00;;;;;;5071300;28;20239;-69
2024/03/23 10:32:13;;;;;;;4.13;3.03;;;11.90;1.00;;;;;;5070723;28;20578;-68
2024/03/23 10:34:39;;;;;;;4.50;2.60;;;11.70;1.00;;;;;;5072662;28;20657;-69
2024/03/23 10:37:06;;;;;;;5.80;3.67;;;11.50;1.00;;;;;;5074830;28;20495;-66
2024/03/23 10:39:36;;;;;;;4.77;2.80;;;11.20;1.00;;;;;;5075623;28;20202;-68
2024/03/23 10:42:10;;;;;;;4.50;3.13;;;11.00;1.00;;;;;;5077986;28;20427;-68
2024/03/23 10:44:37;;;;;;;6.87;4.30;;;11.10;1.00;;;;;;5077915;28;20416;-69
2024/03/23 10:47:03;;;;;;;9.43;4.37;;;11.50;1.00;;;;;;5074382;28;20420;-69
2024/03/23 10:49:30;;;;;;;5.27;3.20;;;11.70;1.00;;;;;;5074434;28;20446;-68
2024/03/23 10:52:04;;;;;;;4.67;3.37;;;12.30;1.00;;;;;;5071487;28;20462;-69
2024/03/23 10:54:31;;;;;;;6.00;4.27;;;13.10;1.00;;;;;;5071514;28;20470;-69
2024/03/23 10:57:02;;;;;;;5.83;3.60;;;12.70;1.00;;;;;;5071487;28;20511;-69
2024/03/23 10:59:27;;;;;;;7.80;3.73;;;12.60;1.00;;;;;;5070910;28;20590;-69
2024/03/23 11:01:57;;;;;;;6.13;3.93;;;12.50;1.00;;;;;;5071296;28;20520;-68
2024/03/23 11:04:34;;;;;;;6.87;3.90;;;12.60;1.00;;;;;;5053316;28;20178;-68
2024/03/23 11:07:00;;;;;;;5.90;4.27;;;12.20;1.00;;;;;;5070318;28;20511;-70
2024/03/23 11:09:35;;;;;;;5.70;2.00;;;11.70;1.00;;;;;;5070788;28;20428;-73
2024/03/23 11:12:23;;;;;;;7.73;1.87;;;9.70;1.00;;;;;;5053150;28;20459;-69
2024/03/23 11:14:52;;;;;;;6.67;1.77;;;8.40;1.00;;;;;;5071257;28;20421;-69
2024/03/23 11:17:19;;;;;;;5.00;2.37;;;7.60;1.00;;;;;;5052844;28;20419;-69
2024/03/23 11:19:52;;;;;;;4.20;1.80;;;7.40;1.00;;;;;;5070705;28;20494;-68
2024/03/23 11:22:40;;;;;;;8.33;2.27;;;7.40;1.00;;;;;;5071025;28;20421;-68
2024/03/23 11:25:24;;;;;;;7.67;2.30;;;7.40;1.00;;;;;;5070966;28;20404;-70
2024/03/23 11:27:51;;;;;;;4.23;1.40;;;7.50;1.00;;;;;;5070801;28;20415;-69
2024/03/23 11:30:22;;;;;;;3.07;2.07;;;8.10;1.00;;;;;;5070905;28;20456;-67
2024/03/23 11:32:48;;;;;;;4.17;2.63;;;8.50;1.00;;;;;;5070526;28;20928;-68
2024/03/23 11:35:42;;;;;;;6.50;2.67;;;8.50;1.00;;;;;;5071146;28;20764;-71
2024/03/23 11:38:11;;;;;;;4.07;2.13;;;8.30;1.00;;;;;;5071424;28;20407;-70
2024/03/23 11:40:48;;;;;;;3.00;1.33;;;8.40;1.00;;;;;;5071679;28;20485;-70
2024/03/23 11:43:18;;;;;;;2.50;1.37;;;8.50;1.00;;;;;;5073121;28;20474;-68
2024/03/23 11:45:46;;;;;;;3.57;1.63;;;8.60;1.00;;;;;;5075677;28;20427;-69
2024/03/23 11:48:20;;;;;;;6.90;2.20;;;8.50;1.00;;;;;;5075281;28;20992;-69
2024/03/23 11:50:53;;;;;;;3.50;2.27;;;8.80;1.00;;;;;;5076015;28;20429;-69
2024/03/23 11:53:21;;;;;;;5.77;2.87;;;8.60;1.00;;;;;;5076788;28;20431;-69
2024/03/23 11:56:00;;;;;;;17.43;9.27;;;8.50;1.00;;;;;;5075175;28;20511;-70
2024/03/23 11:58:27;;;;;;;9.43;5.43;;;8.70;1.00;;;;;;5075265;28;20964;-70
2024/03/23 12:00:57;;;;;;;4.87;2.50;;;8.60;1.00;;;;;;5056896;28;20434;-70
2024/03/23 12:03:25;;;;;;;4.93;2.20;;;8.50;1.00;;;;;;5074902;28;20443;-70
2024/03/23 12:05:55;;;;;;;13.30;6.53;;;8.40;1.00;;;;;;5074820;28;20775;-70
2024/03/23 12:08:25;;;;;;;5.93;2.40;;;8.30;1.00;;;;;;5074678;28;20904;-69
2024/03/23 12:11:16;;;;;;;5.03;1.90;;;8.00;1.00;;;;;;5057308;28;20448;-69
2024/03/23 12:13:44;;;;;;;6.70;2.33;;;7.80;1.00;;;;;;5076629;28;20824;-69
2024/03/23 12:16:14;;;;;;;8.20;2.70;;;7.70;1.00;;;;;;5076069;28;20398;-69
2024/03/23 12:18:42;;;;;;;9.57;2.77;;;7.80;1.00;;;;;;5076361;28;20396;-69
2024/03/23 12:21:08;;;;;;;5.67;1.50;;;7.90;1.00;;;;;;5076166;28;20424;-70
2024/03/23 12:23:34;;;;;;;7.10;2.47;;;7.70;1.00;;;;;;5076290;28;20400;-70
2024/03/23 12:26:00;;;;;;;5.53;2.17;;;8.00;1.00;;;;;;5075822;28;20400;-68
2024/03/23 12:28:26;;;;;;;6.40;1.90;;;7.80;1.00;;;;;;5076116;28;20765;-68
2024/03/23 12:30:52;;;;;;;3.00;1.87;;;7.80;1.00;;;;;;5058034;28;20220;-69
2024/03/23 12:33:18;;;;;;;2.10;1.57;;;7.40;1.00;;;;;;5074861;28;20202;-69
2024/03/23 12:35:44;;;;;;;3.77;1.80;;;7.20;1.00;;;;;;5075210;28;20476;-69
2024/03/23 12:38:09;;;;;;;5.50;1.87;;;7.20;1.00;;;;;;5056639;28;20513;-69
2024/03/23 12:40:35;;;;;;;2.53;1.40;;;7.30;1.00;;;;;;5073556;28;20210;-70
2024/03/23 12:43:00;;;;;;;3.20;1.50;;;7.30;1.00;;;;;;5073114;28;20205;-70
2024/03/23 12:45:26;;;;;;;4.27;2.50;;;7.40;1.00;;;;;;5073164;28;20371;-70
2024/03/23 12:47:53;;;;;;;3.53;1.87;;;7.70;1.00;;;;;;5073247;28;20259;-69
2024/03/23 12:50:19;;;;;;;6.33;2.57;;;8.20;1.00;;;;;;5073232;28;20432;-71
2024/03/23 12:52:45;;;;;;;3.07;1.57;;;8.60;1.00;;;;;;5073114;28;20519;-68
2024/03/23 12:55:10;;;;;;;2.33;1.20;;;9.10;1.00;;;;;;5071729;28;20435;-68
2024/03/23 12:57:36;;;;;;;6.23;1.80;;;9.00;1.00;;;;;;5066100;28;20231;-69